sensor_id;sensor_type;location;lat;lon;timestamp;P1;durP1;ratioP1;P2;durP2;ratioP2
28920;SDS011;16035;53.594;9.952;2023-08-31T00:01:02;10.45;;;6.32;;
28920;SDS011;16035;53.594;9.952;2023-08-31T00:03:06;8.13;;;5.35;;
28920;SDS011;16035;53.594;9.952;2023-08-31T00:05:06;7.03;;;5.07;;
28920;SDS011;16035;53.594;9.952;2023-08-31T00:07:07;6.75;;;4.80;;
28920;SDS011;16035;53.594;9.952;2023-08-31T00:09:07;6.47;;;4.47;;
28920;SDS011;16035;53.594;9.952;2023-08-31T00:11:09;6.43;;;4.43;;
28920;SDS011;16035;53.594;9.952;2023-08-31T00:13:09;8.17;;;5.20;;
28920;SDS011;16035;53.594;9.952;2023-08-31T00:15:10;6.13;;;4.33;;
28920;SDS011;16035;53.594;9.952;2023-08-31T00:17:10;5.20;;;4.17;;
28920;SDS011;16035;53.594;9.952;2023-08-31T00:19:11;6.90;;;4.73;;
28920;SDS011;16035;53.594;9.952;2023-08-31T00:21:11;7.03;;;4.43;;
28920;SDS011;16035;53.594;9.952;2023-08-31T00:23:12;6.17;;;4.37;;
28920;SDS011;16035;53.594;9.952;2023-08-31T00:25:12;6.17;;;4.40;;
28920;SDS011;16035;53.594;9.952;2023-08-31T00:27:12;7.27;;;4.23;;
28920;SDS011;16035;53.594;9.952;2023-08-31T00:29:15;5.72;;;4.43;;
28920;SDS011;16035;53.594;9.952;2023-08-31T00:31:16;9.00;;;4.30;;
28920;SDS011;16035;53.594;9.952;2023-08-31T00:33:16;7.10;;;4.60;;
28920;SDS011;16035;53.594;9.952;2023-08-31T00:35:17;5.37;;;3.80;;
28920;SDS011;16035;53.594;9.952;2023-08-31T00:37:17;6.53;;;4.37;;
28920;SDS011;16035;53.594;9.952;2023-08-31T00:39:18;7.75;;;4.65;;
28920;SDS011;16035;53.594;9.952;2023-08-31T00:41:22;5.85;;;4.47;;
28920;SDS011;16035;53.594;9.952;2023-08-31T00:43:22;6.32;;;4.28;;
28920;SDS011;16035;53.594;9.952;2023-08-31T00:45:23;6.57;;;4.43;;
28920;SDS011;16035;53.594;9.952;2023-08-31T00:47:24;5.53;;;3.47;;
28920;SDS011;16035;53.594;9.952;2023-08-31T00:49:24;5.57;;;4.37;;
28920;SDS011;16035;53.594;9.952;2023-08-31T00:51:24;7.13;;;4.43;;
28920;SDS011;16035;53.594;9.952;2023-08-31T00:53:25;5.40;;;4.00;;
28920;SDS011;16035;53.594;9.952;2023-08-31T00:55:25;7.50;;;4.43;;
28920;SDS011;16035;53.594;9.952;2023-08-31T00:57:26;5.00;;;3.70;;
28920;SDS011;16035;53.594;9.952;2023-08-31T00:59:27;5.45;;;3.85;;
28920;SDS011;16035;53.594;9.952;2023-08-31T01:03:48;6.00;;;4.38;;
28920;SDS011;16035;53.594;9.952;2023-08-31T01:06:50;7.95;;;3.92;;
28920;SDS011;16035;53.594;9.952;2023-08-31T01:08:57;6.75;;;4.05;;
28920;SDS011;16035;53.594;9.952;2023-08-31T01:11:08;5.60;;;4.25;;
28920;SDS011;16035;53.594;9.952;2023-08-31T01:13:19;4.80;;;3.47;;
28920;SDS011;16035;53.594;9.952;2023-08-31T01:15:24;4.80;;;3.80;;
28920;SDS011;16035;53.594;9.952;2023-08-31T01:17:26;6.93;;;3.95;;
28920;SDS011;16035;53.594;9.952;2023-08-31T01:19:35;7.50;;;4.20;;
28920;SDS011;16035;53.594;9.952;2023-08-31T01:21:46;6.13;;;4.22;;
28920;SDS011;16035;53.594;9.952;2023-08-31T01:23:52;7.85;;;3.47;;
28920;SDS011;16035;53.594;9.952;2023-08-31T01:25:56;6.35;;;3.90;;
28920;SDS011;16035;53.594;9.952;2023-08-31T01:28:00;5.88;;;4.07;;
28920;SDS011;16035;53.594;9.952;2023-08-31T01:30:01;6.55;;;4.20;;
28920;SDS011;16035;53.594;9.952;2023-08-31T01:32:06;8.68;;;3.95;;
28920;SDS011;16035;53.594;9.952;2023-08-31T01:34:07;8.35;;;4.57;;
28920;SDS011;16035;53.594;9.952;2023-08-31T01:36:16;4.83;;;3.73;;
28920;SDS011;16035;53.594;9.952;2023-08-31T01:38:25;6.15;;;3.97;;
28920;SDS011;16035;53.594;9.952;2023-08-31T01:40:52;5.50;;;4.40;;
28920;SDS011;16035;53.594;9.952;2023-08-31T01:42:53;6.05;;;3.47;;
28920;SDS011;16035;53.594;9.952;2023-08-31T01:44:55;4.80;;;3.45;;
28920;SDS011;16035;53.594;9.952;2023-08-31T01:47:06;5.70;;;4.07;;
28920;SDS011;16035;53.594;9.952;2023-08-31T01:49:07;9.27;;;3.95;;
28920;SDS011;16035;53.594;9.952;2023-08-31T01:51:07;4.93;;;3.73;;
28920;SDS011;16035;53.594;9.952;2023-08-31T01:53:08;6.90;;;4.10;;
28920;SDS011;16035;53.594;9.952;2023-08-31T01:55:09;7.83;;;4.73;;
28920;SDS011;16035;53.594;9.952;2023-08-31T01:57:09;7.03;;;4.23;;
28920;SDS011;16035;53.594;9.952;2023-08-31T01:59:09;5.37;;;3.77;;
28920;SDS011;16035;53.594;9.952;2023-08-31T02:01:10;5.87;;;4.23;;
28920;SDS011;16035;53.594;9.952;2023-08-31T02:03:10;7.43;;;4.30;;
28920;SDS011;16035;53.594;9.952;2023-08-31T02:05:11;12.03;;;4.10;;
28920;SDS011;16035;53.594;9.952;2023-08-31T02:07:11;6.37;;;3.90;;
28920;SDS011;16035;53.594;9.952;2023-08-31T02:09:13;5.03;;;3.67;;
28920;SDS011;16035;53.594;9.952;2023-08-31T02:11:14;4.85;;;4.13;;
28920;SDS011;16035;53.594;9.952;2023-08-31T02:13:14;5.13;;;3.90;;
28920;SDS011;16035;53.594;9.952;2023-08-31T02:15:15;6.40;;;3.97;;
28920;SDS011;16035;53.594;9.952;2023-08-31T02:17:15;5.53;;;3.57;;
28920;SDS011;16035;53.594;9.952;2023-08-31T02:19:16;8.40;;;4.27;;
28920;SDS011;16035;53.594;9.952;2023-08-31T02:21:16;5.20;;;3.57;;
28920;SDS011;16035;53.594;9.952;2023-08-31T02:23:16;6.17;;;4.03;;
28920;SDS011;16035;53.594;9.952;2023-08-31T02:25:17;6.00;;;3.90;;
28920;SDS011;16035;53.594;9.952;2023-08-31T02:27:17;4.37;;;3.43;;
28920;SDS011;16035;53.594;9.952;2023-08-31T02:29:18;5.03;;;3.80;;
28920;SDS011;16035;53.594;9.952;2023-08-31T02:31:18;5.30;;;3.87;;
28920;SDS011;16035;53.594;9.952;2023-08-31T02:33:18;7.53;;;4.00;;
28920;SDS011;16035;53.594;9.952;2023-08-31T02:35:19;5.17;;;3.30;;
28920;SDS011;16035;53.594;9.952;2023-08-31T02:37:19;4.60;;;3.40;;
28920;SDS011;16035;53.594;9.952;2023-08-31T02:39:19;6.33;;;3.77;;
28920;SDS011;16035;53.594;9.952;2023-08-31T02:41:20;6.07;;;3.97;;
28920;SDS011;16035;53.594;9.952;2023-08-31T02:43:20;5.50;;;3.70;;
28920;SDS011;16035;53.594;9.952;2023-08-31T02:45:20;4.70;;;3.87;;
28920;SDS011;16035;53.594;9.952;2023-08-31T02:47:21;6.63;;;3.70;;
28920;SDS011;16035;53.594;9.952;2023-08-31T02:49:21;5.27;;;3.60;;
28920;SDS011;16035;53.594;9.952;2023-08-31T02:51:21;6.27;;;3.30;;
28920;SDS011;16035;53.594;9.952;2023-08-31T02:53:22;6.97;;;3.70;;
28920;SDS011;16035;53.594;9.952;2023-08-31T02:55:22;4.60;;;3.67;;
28920;SDS011;16035;53.594;9.952;2023-08-31T02:57:22;8.40;;;3.37;;
28920;SDS011;16035;53.594;9.952;2023-08-31T02:59:23;8.10;;;3.63;;
28920;SDS011;16035;53.594;9.952;2023-08-31T03:01:23;7.83;;;3.50;;
28920;SDS011;16035;53.594;9.952;2023-08-31T03:03:24;6.73;;;3.33;;
28920;SDS011;16035;53.594;9.952;2023-08-31T03:05:24;6.20;;;3.27;;
28920;SDS011;16035;53.594;9.952;2023-08-31T03:07:24;4.33;;;2.83;;
28920;SDS011;16035;53.594;9.952;2023-08-31T03:09:25;5.00;;;3.10;;
28920;SDS011;16035;53.594;9.952;2023-08-31T03:11:25;6.90;;;3.10;;
28920;SDS011;16035;53.594;9.952;2023-08-31T03:13:25;4.90;;;3.00;;
28920;SDS011;16035;53.594;9.952;2023-08-31T03:15:26;6.90;;;3.20;;
28920;SDS011;16035;53.594;9.952;2023-08-31T03:17:26;8.77;;;3.60;;
28920;SDS011;16035;53.594;9.952;2023-08-31T03:19:26;6.07;;;3.30;;
28920;SDS011;16035;53.594;9.952;2023-08-31T03:21:27;4.97;;;3.50;;
28920;SDS011;16035;53.594;9.952;2023-08-31T03:23:29;4.10;;;2.90;;
28920;SDS011;16035;53.594;9.952;2023-08-31T03:25:30;5.80;;;3.40;;
28920;SDS011;16035;53.594;9.952;2023-08-31T03:27:30;4.50;;;3.07;;
28920;SDS011;16035;53.594;9.952;2023-08-31T03:29:31;5.03;;;3.00;;
28920;SDS011;16035;53.594;9.952;2023-08-31T03:31:32;4.55;;;3.08;;
28920;SDS011;16035;53.594;9.952;2023-08-31T03:33:32;9.37;;;3.30;;
28920;SDS011;16035;53.594;9.952;2023-08-31T03:35:32;5.37;;;3.47;;
28920;SDS011;16035;53.594;9.952;2023-08-31T03:37:33;6.13;;;2.93;;
28920;SDS011;16035;53.594;9.952;2023-08-31T03:39:33;6.13;;;3.37;;
28920;SDS011;16035;53.594;9.952;2023-08-31T03:41:34;7.93;;;3.43;;
28920;SDS011;16035;53.594;9.952;2023-08-31T03:45:35;5.63;;;3.53;;
28920;SDS011;16035;53.594;9.952;2023-08-31T03:47:36;6.63;;;3.10;;
28920;SDS011;16035;53.594;9.952;2023-08-31T03:49:36;6.43;;;2.60;;
28920;SDS011;16035;53.594;9.952;2023-08-31T03:51:36;4.03;;;2.90;;
28920;SDS011;16035;53.594;9.952;2023-08-31T03:53:37;5.00;;;2.70;;
28920;SDS011;16035;53.594;9.952;2023-08-31T03:55:37;4.10;;;2.53;;
28920;SDS011;16035;53.594;9.952;2023-08-31T03:57:37;4.87;;;2.93;;
28920;SDS011;16035;53.594;9.952;2023-08-31T03:59:38;6.60;;;2.53;;
28920;SDS011;16035;53.594;9.952;2023-08-31T04:01:38;4.17;;;2.53;;
28920;SDS011;16035;53.594;9.952;2023-08-31T04:03:38;3.87;;;2.37;;
28920;SDS011;16035;53.594;9.952;2023-08-31T04:05:39;4.33;;;2.80;;
28920;SDS011;16035;53.594;9.952;2023-08-31T04:07:39;6.83;;;2.73;;
28920;SDS011;16035;53.594;9.952;2023-08-31T04:09:39;5.83;;;2.73;;
28920;SDS011;16035;53.594;9.952;2023-08-31T04:11:40;3.57;;;2.53;;
28920;SDS011;16035;53.594;9.952;2023-08-31T04:13:40;4.37;;;2.40;;
28920;SDS011;16035;53.594;9.952;2023-08-31T04:15:40;3.63;;;2.50;;
28920;SDS011;16035;53.594;9.952;2023-08-31T04:17:40;4.27;;;2.70;;
28920;SDS011;16035;53.594;9.952;2023-08-31T04:19:41;5.10;;;2.70;;
28920;SDS011;16035;53.594;9.952;2023-08-31T04:21:41;4.73;;;2.57;;
28920;SDS011;16035;53.594;9.952;2023-08-31T04:23:41;5.50;;;2.87;;
28920;SDS011;16035;53.594;9.952;2023-08-31T04:25:42;5.23;;;2.60;;
28920;SDS011;16035;53.594;9.952;2023-08-31T04:27:42;3.10;;;2.17;;
28920;SDS011;16035;53.594;9.952;2023-08-31T04:29:43;7.28;;;2.50;;
28920;SDS011;16035;53.594;9.952;2023-08-31T04:31:44;6.93;;;2.50;;
28920;SDS011;16035;53.594;9.952;2023-08-31T04:33:44;3.53;;;2.30;;
28920;SDS011;16035;53.594;9.952;2023-08-31T04:35:45;5.93;;;2.58;;
28920;SDS011;16035;53.594;9.952;2023-08-31T04:37:45;4.27;;;2.67;;
28920;SDS011;16035;53.594;9.952;2023-08-31T04:39:46;3.58;;;2.63;;
28920;SDS011;16035;53.594;9.952;2023-08-31T04:41:47;4.30;;;2.70;;
28920;SDS011;16035;53.594;9.952;2023-08-31T04:43:47;5.47;;;2.40;;
28920;SDS011;16035;53.594;9.952;2023-08-31T04:45:48;3.50;;;2.67;;
28920;SDS011;16035;53.594;9.952;2023-08-31T04:47:48;4.77;;;3.00;;
28920;SDS011;16035;53.594;9.952;2023-08-31T04:49:50;5.53;;;2.90;;
28920;SDS011;16035;53.594;9.952;2023-08-31T04:51:51;6.30;;;2.90;;
28920;SDS011;16035;53.594;9.952;2023-08-31T04:53:51;4.17;;;2.90;;
28920;SDS011;16035;53.594;9.952;2023-08-31T04:55:51;6.27;;;2.90;;
28920;SDS011;16035;53.594;9.952;2023-08-31T04:57:52;6.10;;;2.73;;
28920;SDS011;16035;53.594;9.952;2023-08-31T04:59:52;5.57;;;2.43;;
28920;SDS011;16035;53.594;9.952;2023-08-31T05:01:52;5.17;;;2.73;;
28920;SDS011;16035;53.594;9.952;2023-08-31T05:03:53;6.50;;;2.80;;
28920;SDS011;16035;53.594;9.952;2023-08-31T05:05:53;6.43;;;2.93;;
28920;SDS011;16035;53.594;9.952;2023-08-31T05:07:53;5.97;;;3.50;;
28920;SDS011;16035;53.594;9.952;2023-08-31T05:09:54;5.37;;;2.90;;
28920;SDS011;16035;53.594;9.952;2023-08-31T05:11:54;6.83;;;2.80;;
28920;SDS011;16035;53.594;9.952;2023-08-31T05:13:54;3.87;;;2.83;;
28920;SDS011;16035;53.594;9.952;2023-08-31T05:15:54;4.73;;;2.73;;
28920;SDS011;16035;53.594;9.952;2023-08-31T05:17:55;4.00;;;2.70;;
28920;SDS011;16035;53.594;9.952;2023-08-31T05:19:56;5.15;;;2.88;;
28920;SDS011;16035;53.594;9.952;2023-08-31T05:21:56;4.67;;;3.00;;
28920;SDS011;16035;53.594;9.952;2023-08-31T05:23:56;3.80;;;2.87;;
28920;SDS011;16035;53.594;9.952;2023-08-31T05:25:57;5.97;;;2.67;;
28920;SDS011;16035;53.594;9.952;2023-08-31T05:27:58;6.40;;;2.80;;
28920;SDS011;16035;53.594;9.952;2023-08-31T05:29:58;4.90;;;2.70;;
28920;SDS011;16035;53.594;9.952;2023-08-31T05:31:58;3.13;;;2.80;;
28920;SDS011;16035;53.594;9.952;2023-08-31T05:33:59;5.10;;;3.30;;
28920;SDS011;16035;53.594;9.952;2023-08-31T05:36:02;9.40;;;3.23;;
28920;SDS011;16035;53.594;9.952;2023-08-31T05:38:06;5.45;;;2.70;;
28920;SDS011;16035;53.594;9.952;2023-08-31T05:40:06;6.20;;;2.63;;
28920;SDS011;16035;53.594;9.952;2023-08-31T05:42:10;3.65;;;3.20;;
28920;SDS011;16035;53.594;9.952;2023-08-31T05:44:10;7.17;;;2.77;;
28920;SDS011;16035;53.594;9.952;2023-08-31T05:46:11;3.83;;;2.90;;
28920;SDS011;16035;53.594;9.952;2023-08-31T05:48:11;6.73;;;3.20;;
28920;SDS011;16035;53.594;9.952;2023-08-31T05:50:12;8.07;;;3.20;;
28920;SDS011;16035;53.594;9.952;2023-08-31T05:52:12;2.90;;;2.37;;
28920;SDS011;16035;53.594;9.952;2023-08-31T05:54:13;6.33;;;2.83;;
28920;SDS011;16035;53.594;9.952;2023-08-31T05:56:13;6.60;;;2.47;;
28920;SDS011;16035;53.594;9.952;2023-08-31T05:58:13;8.53;;;2.43;;
28920;SDS011;16035;53.594;9.952;2023-08-31T06:00:14;7.40;;;2.27;;
28920;SDS011;16035;53.594;9.952;2023-08-31T06:02:16;3.22;;;2.45;;
28920;SDS011;16035;53.594;9.952;2023-08-31T06:04:16;6.17;;;2.33;;
28920;SDS011;16035;53.594;9.952;2023-08-31T06:06:16;5.70;;;2.77;;
28920;SDS011;16035;53.594;9.952;2023-08-31T06:08:17;4.10;;;2.63;;
28920;SDS011;16035;53.594;9.952;2023-08-31T06:10:17;8.77;;;2.60;;
28920;SDS011;16035;53.594;9.952;2023-08-31T06:12:17;4.60;;;1.93;;
28920;SDS011;16035;53.594;9.952;2023-08-31T06:14:18;5.67;;;2.73;;
28920;SDS011;16035;53.594;9.952;2023-08-31T06:16:19;6.95;;;2.80;;
28920;SDS011;16035;53.594;9.952;2023-08-31T06:18:19;3.30;;;2.07;;
28920;SDS011;16035;53.594;9.952;2023-08-31T06:20:20;4.90;;;2.20;;
28920;SDS011;16035;53.594;9.952;2023-08-31T06:22:20;8.57;;;2.60;;
28920;SDS011;16035;53.594;9.952;2023-08-31T06:24:22;5.10;;;2.45;;
28920;SDS011;16035;53.594;9.952;2023-08-31T06:26:23;4.13;;;2.23;;
28920;SDS011;16035;53.594;9.952;2023-08-31T06:28:23;5.73;;;2.33;;
28920;SDS011;16035;53.594;9.952;2023-08-31T06:30:23;5.13;;;2.50;;
28920;SDS011;16035;53.594;9.952;2023-08-31T06:32:24;7.03;;;2.20;;
28920;SDS011;16035;53.594;9.952;2023-08-31T06:34:24;5.77;;;2.87;;
28920;SDS011;16035;53.594;9.952;2023-08-31T06:36:25;7.00;;;2.57;;
28920;SDS011;16035;53.594;9.952;2023-08-31T06:38:25;7.20;;;2.50;;
28920;SDS011;16035;53.594;9.952;2023-08-31T06:40:25;2.73;;;1.73;;
28920;SDS011;16035;53.594;9.952;2023-08-31T06:42:26;4.07;;;2.33;;
28920;SDS011;16035;53.594;9.952;2023-08-31T06:44:26;6.90;;;2.10;;
28920;SDS011;16035;53.594;9.952;2023-08-31T06:46:26;6.77;;;3.13;;
28920;SDS011;16035;53.594;9.952;2023-08-31T06:48:27;8.65;;;2.33;;
28920;SDS011;16035;53.594;9.952;2023-08-31T06:50:28;4.90;;;2.35;;
28920;SDS011;16035;53.594;9.952;2023-08-31T06:52:29;4.57;;;2.20;;
28920;SDS011;16035;53.594;9.952;2023-08-31T06:54:29;3.83;;;2.70;;
28920;SDS011;16035;53.594;9.952;2023-08-31T06:56:30;6.40;;;2.47;;
28920;SDS011;16035;53.594;9.952;2023-08-31T06:58:30;4.97;;;2.43;;
28920;SDS011;16035;53.594;9.952;2023-08-31T07:00:30;4.47;;;2.23;;
28920;SDS011;16035;53.594;9.952;2023-08-31T07:02:32;3.67;;;1.88;;
28920;SDS011;16035;53.594;9.952;2023-08-31T07:04:34;4.40;;;1.65;;
28920;SDS011;16035;53.594;9.952;2023-08-31T07:06:35;4.17;;;1.67;;
28920;SDS011;16035;53.594;9.952;2023-08-31T07:08:35;4.90;;;1.85;;
28920;SDS011;16035;53.594;9.952;2023-08-31T07:10:37;5.30;;;2.08;;
28920;SDS011;16035;53.594;9.952;2023-08-31T07:12:37;3.37;;;1.93;;
28920;SDS011;16035;53.594;9.952;2023-08-31T07:14:37;4.37;;;2.00;;
28920;SDS011;16035;53.594;9.952;2023-08-31T07:16:38;2.60;;;1.80;;
28920;SDS011;16035;53.594;9.952;2023-08-31T07:18:38;5.60;;;2.40;;
28920;SDS011;16035;53.594;9.952;2023-08-31T07:20:39;3.70;;;1.77;;
28920;SDS011;16035;53.594;9.952;2023-08-31T07:22:39;6.97;;;1.67;;
28920;SDS011;16035;53.594;9.952;2023-08-31T07:24:40;2.33;;;1.50;;
28920;SDS011;16035;53.594;9.952;2023-08-31T07:26:40;2.10;;;1.30;;
28920;SDS011;16035;53.594;9.952;2023-08-31T07:28:41;7.93;;;1.47;;
28920;SDS011;16035;53.594;9.952;2023-08-31T07:30:41;4.15;;;1.55;;
28920;SDS011;16035;53.594;9.952;2023-08-31T07:32:42;5.50;;;1.60;;
28920;SDS011;16035;53.594;9.952;2023-08-31T07:34:42;5.90;;;1.70;;
28920;SDS011;16035;53.594;9.952;2023-08-31T07:36:42;3.53;;;1.27;;
28920;SDS011;16035;53.594;9.952;2023-08-31T07:38:43;4.82;;;1.67;;
28920;SDS011;16035;53.594;9.952;2023-08-31T07:40:44;3.30;;;1.80;;
28920;SDS011;16035;53.594;9.952;2023-08-31T07:42:44;1.20;;;1.07;;
28920;SDS011;16035;53.594;9.952;2023-08-31T07:44:44;2.57;;;1.40;;
28920;SDS011;16035;53.594;9.952;2023-08-31T07:46:45;1.87;;;1.40;;
28920;SDS011;16035;53.594;9.952;2023-08-31T07:48:45;1.90;;;1.30;;
28920;SDS011;16035;53.594;9.952;2023-08-31T07:50:47;5.50;;;1.75;;
28920;SDS011;16035;53.594;9.952;2023-08-31T07:54:48;1.73;;;1.10;;
28920;SDS011;16035;53.594;9.952;2023-08-31T07:56:49;3.10;;;1.13;;
28920;SDS011;16035;53.594;9.952;2023-08-31T07:58:49;2.77;;;1.00;;
28920;SDS011;16035;53.594;9.952;2023-08-31T08:00:53;2.70;;;1.23;;
28920;SDS011;16035;53.594;9.952;2023-08-31T08:02:54;1.60;;;1.30;;
28920;SDS011;16035;53.594;9.952;2023-08-31T08:04:55;2.77;;;1.50;;
28920;SDS011;16035;53.594;9.952;2023-08-31T08:06:55;2.87;;;1.27;;
28920;SDS011;16035;53.594;9.952;2023-08-31T08:08:55;2.33;;;1.27;;
28920;SDS011;16035;53.594;9.952;2023-08-31T08:10:56;1.80;;;1.33;;
28920;SDS011;16035;53.594;9.952;2023-08-31T08:12:56;3.50;;;1.50;;
28920;SDS011;16035;53.594;9.952;2023-08-31T08:14:56;5.03;;;1.80;;
28920;SDS011;16035;53.594;9.952;2023-08-31T08:16:57;3.27;;;1.43;;
28920;SDS011;16035;53.594;9.952;2023-08-31T08:18:57;4.77;;;2.10;;
28920;SDS011;16035;53.594;9.952;2023-08-31T08:20:57;1.77;;;1.53;;
28920;SDS011;16035;53.594;9.952;2023-08-31T08:22:58;3.97;;;1.30;;
28920;SDS011;16035;53.594;9.952;2023-08-31T08:24:58;2.67;;;1.43;;
28920;SDS011;16035;53.594;9.952;2023-08-31T08:26:58;4.97;;;1.60;;
28920;SDS011;16035;53.594;9.952;2023-08-31T08:28:59;3.77;;;1.90;;
28920;SDS011;16035;53.594;9.952;2023-08-31T08:31:02;2.47;;;1.63;;
28920;SDS011;16035;53.594;9.952;2023-08-31T08:33:03;4.80;;;1.58;;
28920;SDS011;16035;53.594;9.952;2023-08-31T08:35:03;2.70;;;1.65;;
28920;SDS011;16035;53.594;9.952;2023-08-31T08:37:04;3.67;;;1.38;;
28920;SDS011;16035;53.594;9.952;2023-08-31T08:39:05;2.53;;;1.40;;
28920;SDS011;16035;53.594;9.952;2023-08-31T08:41:05;2.20;;;1.27;;
28920;SDS011;16035;53.594;9.952;2023-08-31T08:43:07;3.97;;;1.63;;
28920;SDS011;16035;53.594;9.952;2023-08-31T08:45:12;3.13;;;1.15;;
28920;SDS011;16035;53.594;9.952;2023-08-31T08:47:19;2.38;;;1.08;;
28920;SDS011;16035;53.594;9.952;2023-08-31T08:49:20;1.48;;;1.23;;
28920;SDS011;16035;53.594;9.952;2023-08-31T08:51:23;3.20;;;1.35;;
28920;SDS011;16035;53.594;9.952;2023-08-31T08:53:23;4.10;;;1.57;;
28920;SDS011;16035;53.594;9.952;2023-08-31T08:55:24;3.30;;;1.53;;
28920;SDS011;16035;53.594;9.952;2023-08-31T08:57:24;3.00;;;1.30;;
28920;SDS011;16035;53.594;9.952;2023-08-31T08:59:24;5.00;;;1.43;;
28920;SDS011;16035;53.594;9.952;2023-08-31T09:01:25;3.70;;;1.63;;
28920;SDS011;16035;53.594;9.952;2023-08-31T09:03:26;2.97;;;1.15;;
28920;SDS011;16035;53.594;9.952;2023-08-31T09:05:26;1.80;;;1.50;;
28920;SDS011;16035;53.594;9.952;2023-08-31T09:07:29;2.67;;;1.43;;
28920;SDS011;16035;53.594;9.952;2023-08-31T09:09:29;4.63;;;1.70;;
28920;SDS011;16035;53.594;9.952;2023-08-31T09:11:30;2.90;;;1.30;;
28920;SDS011;16035;53.594;9.952;2023-08-31T09:13:30;2.53;;;1.20;;
28920;SDS011;16035;53.594;9.952;2023-08-31T09:15:40;4.27;;;1.70;;
28920;SDS011;16035;53.594;9.952;2023-08-31T09:17:43;4.90;;;2.33;;
28920;SDS011;16035;53.594;9.952;2023-08-31T09:19:44;1.80;;;1.20;;
28920;SDS011;16035;53.594;9.952;2023-08-31T09:21:57;5.28;;;2.03;;
28920;SDS011;16035;53.594;9.952;2023-08-31T09:23:58;1.37;;;1.10;;
28920;SDS011;16035;53.594;9.952;2023-08-31T09:25:58;4.00;;;1.70;;
28920;SDS011;16035;53.594;9.952;2023-08-31T09:27:59;3.10;;;1.77;;
28920;SDS011;16035;53.594;9.952;2023-08-31T09:30:02;2.90;;;1.70;;
28920;SDS011;16035;53.594;9.952;2023-08-31T09:32:03;2.35;;;1.55;;
28920;SDS011;16035;53.594;9.952;2023-08-31T09:34:03;2.00;;;1.37;;
28920;SDS011;16035;53.594;9.952;2023-08-31T09:36:05;2.00;;;1.20;;
28920;SDS011;16035;53.594;9.952;2023-08-31T09:38:07;1.83;;;1.30;;
28920;SDS011;16035;53.594;9.952;2023-08-31T09:40:08;4.20;;;1.20;;
28920;SDS011;16035;53.594;9.952;2023-08-31T09:42:09;1.73;;;1.63;;
28920;SDS011;16035;53.594;9.952;2023-08-31T09:44:16;4.73;;;1.67;;
28920;SDS011;16035;53.594;9.952;2023-08-31T09:46:17;3.55;;;1.50;;
28920;SDS011;16035;53.594;9.952;2023-08-31T09:48:19;2.28;;;1.40;;
28920;SDS011;16035;53.594;9.952;2023-08-31T09:50:20;3.30;;;1.65;;
28920;SDS011;16035;53.594;9.952;2023-08-31T09:52:21;2.92;;;1.42;;
28920;SDS011;16035;53.594;9.952;2023-08-31T09:56:26;2.45;;;1.77;;
28920;SDS011;16035;53.594;9.952;2023-08-31T09:58:29;2.53;;;1.50;;
28920;SDS011;16035;53.594;9.952;2023-08-31T10:00:31;2.83;;;1.67;;
28920;SDS011;16035;53.594;9.952;2023-08-31T10:02:32;1.92;;;1.35;;
28920;SDS011;16035;53.594;9.952;2023-08-31T10:04:34;2.45;;;1.35;;
28920;SDS011;16035;53.594;9.952;2023-08-31T10:06:35;3.50;;;1.48;;
28920;SDS011;16035;53.594;9.952;2023-08-31T10:08:39;4.57;;;1.50;;
28920;SDS011;16035;53.594;9.952;2023-08-31T10:10:39;2.80;;;1.20;;
28920;SDS011;16035;53.594;9.952;2023-08-31T10:12:41;5.15;;;1.80;;
28920;SDS011;16035;53.594;9.952;2023-08-31T10:14:43;2.17;;;1.63;;
28920;SDS011;16035;53.594;9.952;2023-08-31T10:16:46;1.95;;;1.63;;
28920;SDS011;16035;53.594;9.952;2023-08-31T10:18:48;1.50;;;1.33;;
28920;SDS011;16035;53.594;9.952;2023-08-31T10:20:48;2.33;;;1.30;;
28920;SDS011;16035;53.594;9.952;2023-08-31T10:22:49;2.47;;;1.40;;
28920;SDS011;16035;53.594;9.952;2023-08-31T10:24:59;2.60;;;1.80;;
28920;SDS011;16035;53.594;9.952;2023-08-31T10:29:26;3.47;;;2.03;;
28920;SDS011;16035;53.594;9.952;2023-08-31T10:31:31;4.57;;;1.90;;
28920;SDS011;16035;53.594;9.952;2023-08-31T10:33:39;4.32;;;1.92;;
28920;SDS011;16035;53.594;9.952;2023-08-31T10:36:00;2.33;;;1.70;;
28920;SDS011;16035;53.594;9.952;2023-08-31T10:38:17;3.03;;;1.67;;
28920;SDS011;16035;53.594;9.952;2023-08-31T10:40:25;2.25;;;1.42;;
28920;SDS011;16035;53.594;9.952;2023-08-31T10:42:25;2.63;;;1.40;;
28920;SDS011;16035;53.594;9.952;2023-08-31T10:44:26;4.33;;;1.60;;
28920;SDS011;16035;53.594;9.952;2023-08-31T10:46:34;6.20;;;1.83;;
28920;SDS011;16035;53.594;9.952;2023-08-31T10:48:48;2.17;;;1.52;;
28920;SDS011;16035;53.594;9.952;2023-08-31T10:50:49;2.33;;;1.33;;
28920;SDS011;16035;53.594;9.952;2023-08-31T10:52:50;3.63;;;1.17;;
28920;SDS011;16035;53.594;9.952;2023-08-31T10:54:54;1.97;;;1.20;;
28920;SDS011;16035;53.594;9.952;2023-08-31T10:59:00;1.98;;;1.30;;
28920;SDS011;16035;53.594;9.952;2023-08-31T11:03:02;1.30;;;1.00;;
28920;SDS011;16035;53.594;9.952;2023-08-31T11:05:14;1.95;;;1.00;;
28920;SDS011;16035;53.594;9.952;2023-08-31T11:09:20;3.22;;;1.00;;
28920;SDS011;16035;53.594;9.952;2023-08-31T11:11:22;2.85;;;0.75;;
28920;SDS011;16035;53.594;9.952;2023-08-31T11:13:23;1.73;;;1.00;;
28920;SDS011;16035;53.594;9.952;2023-08-31T11:15:24;2.13;;;0.90;;
28920;SDS011;16035;53.594;9.952;2023-08-31T11:17:26;1.98;;;0.80;;
28920;SDS011;16035;53.594;9.952;2023-08-31T11:19:30;3.38;;;0.90;;
28920;SDS011;16035;53.594;9.952;2023-08-31T11:21:32;1.13;;;0.77;;
28920;SDS011;16035;53.594;9.952;2023-08-31T11:23:32;1.73;;;1.17;;
28920;SDS011;16035;53.594;9.952;2023-08-31T11:25:33;3.30;;;1.00;;
28920;SDS011;16035;53.594;9.952;2023-08-31T11:27:34;1.63;;;0.80;;
28920;SDS011;16035;53.594;9.952;2023-08-31T11:29:37;4.30;;;0.87;;
28920;SDS011;16035;53.594;9.952;2023-08-31T11:31:42;1.40;;;0.85;;
28920;SDS011;16035;53.594;9.952;2023-08-31T11:33:43;0.97;;;0.70;;
28920;SDS011;16035;53.594;9.952;2023-08-31T11:35:47;1.52;;;0.93;;
28920;SDS011;16035;53.594;9.952;2023-08-31T11:37:51;1.33;;;0.60;;
28920;SDS011;16035;53.594;9.952;2023-08-31T11:39:55;1.08;;;0.80;;
28920;SDS011;16035;53.594;9.952;2023-08-31T11:41:55;1.07;;;0.80;;
28920;SDS011;16035;53.594;9.952;2023-08-31T11:43:56;1.70;;;0.70;;
28920;SDS011;16035;53.594;9.952;2023-08-31T11:45:57;1.43;;;0.53;;
28920;SDS011;16035;53.594;9.952;2023-08-31T11:47:59;2.08;;;0.55;;
28920;SDS011;16035;53.594;9.952;2023-08-31T11:50:00;3.08;;;0.88;;
28920;SDS011;16035;53.594;9.952;2023-08-31T11:52:03;1.17;;;0.55;;
28920;SDS011;16035;53.594;9.952;2023-08-31T11:54:04;1.05;;;0.60;;
28920;SDS011;16035;53.594;9.952;2023-08-31T11:56:05;3.13;;;0.70;;
28920;SDS011;16035;53.594;9.952;2023-08-31T11:58:05;1.80;;;0.50;;
28920;SDS011;16035;53.594;9.952;2023-08-31T12:00:07;1.50;;;0.40;;
28920;SDS011;16035;53.594;9.952;2023-08-31T12:02:10;3.58;;;0.90;;
28920;SDS011;16035;53.594;9.952;2023-08-31T12:04:15;2.60;;;0.60;;
28920;SDS011;16035;53.594;9.952;2023-08-31T12:06:18;2.05;;;0.60;;
28920;SDS011;16035;53.594;9.952;2023-08-31T12:08:25;3.97;;;0.75;;
28920;SDS011;16035;53.594;9.952;2023-08-31T12:10:26;0.90;;;0.50;;
28920;SDS011;16035;53.594;9.952;2023-08-31T12:12:27;1.77;;;0.50;;
28920;SDS011;16035;53.594;9.952;2023-08-31T12:14:28;2.10;;;0.52;;
28920;SDS011;16035;53.594;9.952;2023-08-31T12:16:35;1.53;;;0.70;;
28920;SDS011;16035;53.594;9.952;2023-08-31T12:18:36;3.28;;;0.60;;
28920;SDS011;16035;53.594;9.952;2023-08-31T12:22:43;5.53;;;0.85;;
28920;SDS011;16035;53.594;9.952;2023-08-31T12:24:43;1.93;;;0.53;;
28920;SDS011;16035;53.594;9.952;2023-08-31T12:26:44;1.53;;;0.40;;
28920;SDS011;16035;53.594;9.952;2023-08-31T12:28:44;3.20;;;0.80;;
28920;SDS011;16035;53.594;9.952;2023-08-31T12:30:52;1.70;;;1.03;;
28920;SDS011;16035;53.594;9.952;2023-08-31T12:32:53;1.75;;;0.63;;